Terminal Aerodrome Forecast
Issued by NWS Memphis, TN

Home | Current Version | Previous Version | Text Only | Print | Product List | Glossary On
Versions: 1 2 3 4 5 6 7 8 9 10 11 12 13
000
FTUS44 KMEG 032327
TAFJBR
TAF
KJBR 032327Z 0400/0424 06008KT P6SM -RA SCT025 OVC060
     FM040200 06008KT 5SM -RA BR SCT007 OVC015
     FM040500 06008KT 5SM -RA BR OVC007
     FM041200 06008KT 6SM BR VCSH OVC005
     FM041600 05006KT P6SM OVC009
     FM041900 32006KT P6SM OVC015
     FM042300 35006KT P6SM BKN025=

USA.gov is the U.S. government's official web portal to all federal, state and local government web resources and services.